sensor_id;sensor_type;location;lat;lon;timestamp;P1;durP1;ratioP1;P2;durP2;ratioP2
10991;SDS011;5549;47.028;15.514;2024-01-06T00:00:36;10.52;;;2.55;;
10991;SDS011;5549;47.028;15.514;2024-01-06T00:03:11;5.25;;;2.50;;
10991;SDS011;5549;47.028;15.514;2024-01-06T00:05:39;8.85;;;2.53;;
10991;SDS011;5549;47.028;15.514;2024-01-06T00:08:07;7.80;;;2.70;;
10991;SDS011;5549;47.028;15.514;2024-01-06T00:10:36;7.63;;;3.05;;
10991;SDS011;5549;47.028;15.514;2024-01-06T00:13:04;9.50;;;2.75;;
10991;SDS011;5549;47.028;15.514;2024-01-06T00:15:32;9.70;;;2.67;;
10991;SDS011;5549;47.028;15.514;2024-01-06T00:18:02;6.80;;;2.53;;
10991;SDS011;5549;47.028;15.514;2024-01-06T00:20:31;6.43;;;2.45;;
10991;SDS011;5549;47.028;15.514;2024-01-06T00:22:59;9.07;;;2.78;;
10991;SDS011;5549;47.028;15.514;2024-01-06T00:25:27;9.07;;;2.75;;
10991;SDS011;5549;47.028;15.514;2024-01-06T00:27:55;9.15;;;2.70;;
10991;SDS011;5549;47.028;15.514;2024-01-06T00:30:22;8.65;;;2.80;;
10991;SDS011;5549;47.028;15.514;2024-01-06T00:32:50;6.10;;;2.22;;
10991;SDS011;5549;47.028;15.514;2024-01-06T00:35:18;8.60;;;3.00;;
10991;SDS011;5549;47.028;15.514;2024-01-06T00:37:47;5.85;;;2.22;;
10991;SDS011;5549;47.028;15.514;2024-01-06T00:40:15;7.70;;;2.72;;
10991;SDS011;5549;47.028;15.514;2024-01-06T00:42:44;7.05;;;2.33;;
10991;SDS011;5549;47.028;15.514;2024-01-06T00:45:12;9.30;;;2.78;;
10991;SDS011;5549;47.028;15.514;2024-01-06T00:47:40;5.85;;;2.38;;
10991;SDS011;5549;47.028;15.514;2024-01-06T00:50:08;6.65;;;2.63;;
10991;SDS011;5549;47.028;15.514;2024-01-06T00:52:37;6.20;;;2.28;;
10991;SDS011;5549;47.028;15.514;2024-01-06T00:55:07;7.13;;;2.42;;
10991;SDS011;5549;47.028;15.514;2024-01-06T00:57:35;9.02;;;2.45;;
10991;SDS011;5549;47.028;15.514;2024-01-06T01:00:04;7.13;;;2.55;;
10991;SDS011;5549;47.028;15.514;2024-01-06T01:02:36;8.18;;;2.53;;
10991;SDS011;5549;47.028;15.514;2024-01-06T01:05:05;6.95;;;2.50;;
10991;SDS011;5549;47.028;15.514;2024-01-06T01:07:33;6.38;;;2.22;;
10991;SDS011;5549;47.028;15.514;2024-01-06T01:10:02;9.90;;;2.75;;
10991;SDS011;5549;47.028;15.514;2024-01-06T01:12:33;5.97;;;2.72;;
10991;SDS011;5549;47.028;15.514;2024-01-06T01:15:01;8.65;;;2.33;;
10991;SDS011;5549;47.028;15.514;2024-01-06T01:17:29;6.78;;;2.40;;
10991;SDS011;5549;47.028;15.514;2024-01-06T01:19:57;6.70;;;2.47;;
10991;SDS011;5549;47.028;15.514;2024-01-06T01:22:24;6.40;;;1.80;;
10991;SDS011;5549;47.028;15.514;2024-01-06T01:24:52;9.98;;;2.50;;
10991;SDS011;5549;47.028;15.514;2024-01-06T01:27:20;9.40;;;2.60;;
10991;SDS011;5549;47.028;15.514;2024-01-06T01:29:50;5.90;;;2.42;;
10991;SDS011;5549;47.028;15.514;2024-01-06T01:32:20;5.03;;;2.08;;
10991;SDS011;5549;47.028;15.514;2024-01-06T01:34:48;6.50;;;2.78;;
10991;SDS011;5549;47.028;15.514;2024-01-06T01:37:15;7.00;;;2.53;;
10991;SDS011;5549;47.028;15.514;2024-01-06T01:39:43;8.02;;;2.30;;
10991;SDS011;5549;47.028;15.514;2024-01-06T01:42:11;6.75;;;2.40;;
10991;SDS011;5549;47.028;15.514;2024-01-06T01:44:39;9.80;;;2.08;;
10991;SDS011;5549;47.028;15.514;2024-01-06T01:47:08;6.97;;;2.45;;
10991;SDS011;5549;47.028;15.514;2024-01-06T01:49:36;7.70;;;2.65;;
10991;SDS011;5549;47.028;15.514;2024-01-06T01:52:04;7.22;;;2.13;;
10991;SDS011;5549;47.028;15.514;2024-01-06T01:54:32;6.15;;;2.33;;
10991;SDS011;5549;47.028;15.514;2024-01-06T01:57:00;8.43;;;2.72;;
10991;SDS011;5549;47.028;15.514;2024-01-06T01:59:30;7.25;;;2.60;;
10991;SDS011;5549;47.028;15.514;2024-01-06T02:01:59;6.10;;;2.42;;
10991;SDS011;5549;47.028;15.514;2024-01-06T02:04:29;5.07;;;2.20;;
10991;SDS011;5549;47.028;15.514;2024-01-06T02:06:57;10.40;;;2.72;;
10991;SDS011;5549;47.028;15.514;2024-01-06T02:09:25;7.28;;;2.17;;
10991;SDS011;5549;47.028;15.514;2024-01-06T02:11:56;6.80;;;2.15;;
10991;SDS011;5549;47.028;15.514;2024-01-06T02:14:24;4.88;;;2.20;;
10991;SDS011;5549;47.028;15.514;2024-01-06T02:16:52;7.47;;;2.38;;
10991;SDS011;5549;47.028;15.514;2024-01-06T02:19:20;5.15;;;1.70;;
10991;SDS011;5549;47.028;15.514;2024-01-06T02:21:51;7.63;;;2.58;;
10991;SDS011;5549;47.028;15.514;2024-01-06T02:24:20;5.65;;;2.17;;
10991;SDS011;5549;47.028;15.514;2024-01-06T02:26:48;5.75;;;1.88;;
10991;SDS011;5549;47.028;15.514;2024-01-06T02:29:16;7.90;;;2.78;;
10991;SDS011;5549;47.028;15.514;2024-01-06T02:31:44;8.38;;;2.53;;
10991;SDS011;5549;47.028;15.514;2024-01-06T02:34:12;7.03;;;2.53;;
10991;SDS011;5549;47.028;15.514;2024-01-06T02:36:40;4.82;;;1.67;;
10991;SDS011;5549;47.028;15.514;2024-01-06T02:39:09;6.00;;;2.10;;
10991;SDS011;5549;47.028;15.514;2024-01-06T02:41:37;5.75;;;2.05;;
10991;SDS011;5549;47.028;15.514;2024-01-06T02:44:05;5.97;;;2.58;;
10991;SDS011;5549;47.028;15.514;2024-01-06T02:46:34;6.45;;;2.17;;
10991;SDS011;5549;47.028;15.514;2024-01-06T02:49:02;7.28;;;1.95;;
10991;SDS011;5549;47.028;15.514;2024-01-06T02:51:30;5.30;;;2.15;;
10991;SDS011;5549;47.028;15.514;2024-01-06T02:53:57;6.78;;;2.00;;
10991;SDS011;5549;47.028;15.514;2024-01-06T02:56:27;5.53;;;1.92;;
10991;SDS011;5549;47.028;15.514;2024-01-06T02:58:55;8.30;;;1.90;;
10991;SDS011;5549;47.028;15.514;2024-01-06T03:01:22;5.20;;;2.28;;
10991;SDS011;5549;47.028;15.514;2024-01-06T03:03:50;6.50;;;2.45;;
10991;SDS011;5549;47.028;15.514;2024-01-06T03:06:18;6.45;;;2.40;;
10991;SDS011;5549;47.028;15.514;2024-01-06T03:08:46;8.60;;;2.20;;
10991;SDS011;5549;47.028;15.514;2024-01-06T03:11:14;9.20;;;2.20;;
10991;SDS011;5549;47.028;15.514;2024-01-06T03:13:44;7.22;;;1.92;;
10991;SDS011;5549;47.028;15.514;2024-01-06T03:16:14;6.82;;;2.53;;
10991;SDS011;5549;47.028;15.514;2024-01-06T03:18:42;6.38;;;2.03;;
10991;SDS011;5549;47.028;15.514;2024-01-06T03:21:18;6.05;;;2.10;;
10991;SDS011;5549;47.028;15.514;2024-01-06T03:23:47;6.65;;;1.85;;
10991;SDS011;5549;47.028;15.514;2024-01-06T03:26:17;6.68;;;1.95;;
10991;SDS011;5549;47.028;15.514;2024-01-06T03:28:47;6.88;;;2.30;;
10991;SDS011;5549;47.028;15.514;2024-01-06T03:31:16;5.32;;;2.22;;
10991;SDS011;5549;47.028;15.514;2024-01-06T03:33:44;5.88;;;2.25;;
10991;SDS011;5549;47.028;15.514;2024-01-06T03:36:12;7.10;;;2.33;;
10991;SDS011;5549;47.028;15.514;2024-01-06T03:38:41;6.50;;;2.45;;
10991;SDS011;5549;47.028;15.514;2024-01-06T03:41:09;5.18;;;2.00;;
10991;SDS011;5549;47.028;15.514;2024-01-06T03:43:36;7.10;;;2.10;;
10991;SDS011;5549;47.028;15.514;2024-01-06T03:46:06;8.50;;;1.90;;
10991;SDS011;5549;47.028;15.514;2024-01-06T03:48:34;5.55;;;2.55;;
10991;SDS011;5549;47.028;15.514;2024-01-06T03:51:02;9.15;;;2.25;;
10991;SDS011;5549;47.028;15.514;2024-01-06T03:53:30;9.15;;;2.47;;
10991;SDS011;5549;47.028;15.514;2024-01-06T03:55:58;6.70;;;2.33;;
10991;SDS011;5549;47.028;15.514;2024-01-06T03:58:26;5.43;;;2.28;;
10991;SDS011;5549;47.028;15.514;2024-01-06T04:00:55;6.90;;;2.05;;
10991;SDS011;5549;47.028;15.514;2024-01-06T04:03:24;7.15;;;2.38;;
10991;SDS011;5549;47.028;15.514;2024-01-06T04:05:52;8.02;;;2.65;;
10991;SDS011;5549;47.028;15.514;2024-01-06T04:08:20;7.00;;;2.55;;
10991;SDS011;5549;47.028;15.514;2024-01-06T04:10:48;5.05;;;1.95;;
10991;SDS011;5549;47.028;15.514;2024-01-06T04:13:15;8.35;;;2.35;;
10991;SDS011;5549;47.028;15.514;2024-01-06T04:15:43;8.77;;;3.25;;
10991;SDS011;5549;47.028;15.514;2024-01-06T04:18:12;5.63;;;2.25;;
10991;SDS011;5549;47.028;15.514;2024-01-06T04:20:42;5.63;;;2.30;;
10991;SDS011;5549;47.028;15.514;2024-01-06T04:23:10;6.28;;;2.50;;
10991;SDS011;5549;47.028;15.514;2024-01-06T04:25:38;3.95;;;1.95;;
10991;SDS011;5549;47.028;15.514;2024-01-06T04:28:06;9.02;;;2.58;;
10991;SDS011;5549;47.028;15.514;2024-01-06T04:30:34;8.77;;;2.20;;
10991;SDS011;5549;47.028;15.514;2024-01-06T04:33:02;4.07;;;1.90;;
10991;SDS011;5549;47.028;15.514;2024-01-06T04:35:30;5.32;;;2.45;;
10991;SDS011;5549;47.028;15.514;2024-01-06T04:37:59;6.53;;;2.40;;
10991;SDS011;5549;47.028;15.514;2024-01-06T04:40:27;6.05;;;2.00;;
10991;SDS011;5549;47.028;15.514;2024-01-06T04:42:55;6.07;;;1.80;;
10991;SDS011;5549;47.028;15.514;2024-01-06T04:45:22;5.40;;;2.03;;
10991;SDS011;5549;47.028;15.514;2024-01-06T04:47:51;8.30;;;2.38;;
10991;SDS011;5549;47.028;15.514;2024-01-06T04:50:19;4.63;;;1.92;;
10991;SDS011;5549;47.028;15.514;2024-01-06T04:52:46;5.43;;;1.98;;
10991;SDS011;5549;47.028;15.514;2024-01-06T04:55:16;7.43;;;2.10;;
10991;SDS011;5549;47.028;15.514;2024-01-06T04:57:44;8.75;;;2.70;;
10991;SDS011;5549;47.028;15.514;2024-01-06T05:00:13;6.00;;;2.38;;
10991;SDS011;5549;47.028;15.514;2024-01-06T05:02:41;7.68;;;2.35;;
10991;SDS011;5549;47.028;15.514;2024-01-06T05:05:09;6.97;;;2.58;;
10991;SDS011;5549;47.028;15.514;2024-01-06T05:07:37;8.30;;;3.00;;
10991;SDS011;5549;47.028;15.514;2024-01-06T05:10:06;7.82;;;2.80;;
10991;SDS011;5549;47.028;15.514;2024-01-06T05:12:36;6.15;;;2.22;;
10991;SDS011;5549;47.028;15.514;2024-01-06T05:15:04;6.40;;;2.45;;
10991;SDS011;5549;47.028;15.514;2024-01-06T05:17:33;5.85;;;2.30;;
10991;SDS011;5549;47.028;15.514;2024-01-06T05:20:00;8.15;;;3.05;;
10991;SDS011;5549;47.028;15.514;2024-01-06T05:22:29;5.72;;;2.58;;
10991;SDS011;5549;47.028;15.514;2024-01-06T05:24:56;5.85;;;2.53;;
10991;SDS011;5549;47.028;15.514;2024-01-06T05:27:24;5.50;;;2.38;;
10991;SDS011;5549;47.028;15.514;2024-01-06T05:29:53;6.00;;;2.42;;
10991;SDS011;5549;47.028;15.514;2024-01-06T05:32:21;5.15;;;2.28;;
10991;SDS011;5549;47.028;15.514;2024-01-06T05:34:49;6.35;;;2.08;;
10991;SDS011;5549;47.028;15.514;2024-01-06T05:41:17;6.80;;;2.42;;
10991;SDS011;5549;47.028;15.514;2024-01-06T05:43:45;6.78;;;2.40;;
10991;SDS011;5549;47.028;15.514;2024-01-06T05:46:21;7.65;;;2.47;;
10991;SDS011;5549;47.028;15.514;2024-01-06T05:48:49;6.25;;;2.38;;
10991;SDS011;5549;47.028;15.514;2024-01-06T05:51:17;7.45;;;2.13;;
10991;SDS011;5549;47.028;15.514;2024-01-06T05:53:44;8.00;;;2.55;;
10991;SDS011;5549;47.028;15.514;2024-01-06T05:56:21;6.60;;;2.42;;
10991;SDS011;5549;47.028;15.514;2024-01-06T05:58:53;6.75;;;2.47;;
10991;SDS011;5549;47.028;15.514;2024-01-06T06:01:23;7.70;;;2.60;;
10991;SDS011;5549;47.028;15.514;2024-01-06T06:03:51;7.35;;;2.55;;
10991;SDS011;5549;47.028;15.514;2024-01-06T06:06:18;6.88;;;2.85;;
10991;SDS011;5549;47.028;15.514;2024-01-06T06:08:46;5.80;;;2.47;;
10991;SDS011;5549;47.028;15.514;2024-01-06T06:11:14;7.35;;;2.63;;
10991;SDS011;5549;47.028;15.514;2024-01-06T06:13:42;10.13;;;3.40;;
10991;SDS011;5549;47.028;15.514;2024-01-06T06:16:10;10.88;;;4.55;;
10991;SDS011;5549;47.028;15.514;2024-01-06T06:18:40;9.63;;;4.22;;
10991;SDS011;5549;47.028;15.514;2024-01-06T06:21:09;8.70;;;2.60;;
10991;SDS011;5549;47.028;15.514;2024-01-06T06:23:36;7.20;;;3.25;;
10991;SDS011;5549;47.028;15.514;2024-01-06T06:26:04;9.05;;;3.00;;
10991;SDS011;5549;47.028;15.514;2024-01-06T06:28:33;6.35;;;2.55;;
10991;SDS011;5549;47.028;15.514;2024-01-06T06:31:01;7.07;;;2.47;;
10991;SDS011;5549;47.028;15.514;2024-01-06T06:33:29;9.02;;;2.70;;
10991;SDS011;5549;47.028;15.514;2024-01-06T06:35:59;7.35;;;2.70;;
10991;SDS011;5549;47.028;15.514;2024-01-06T06:38:28;6.55;;;2.13;;
10991;SDS011;5549;47.028;15.514;2024-01-06T06:40:55;8.68;;;2.42;;
10991;SDS011;5549;47.028;15.514;2024-01-06T06:43:23;8.30;;;2.33;;
10991;SDS011;5549;47.028;15.514;2024-01-06T06:45:51;5.60;;;2.38;;
10991;SDS011;5549;47.028;15.514;2024-01-06T06:48:20;6.35;;;2.55;;
10991;SDS011;5549;47.028;15.514;2024-01-06T06:50:48;9.25;;;2.65;;
10991;SDS011;5549;47.028;15.514;2024-01-06T06:53:17;8.20;;;2.80;;
10991;SDS011;5549;47.028;15.514;2024-01-06T06:55:45;4.78;;;2.05;;
10991;SDS011;5549;47.028;15.514;2024-01-06T06:58:12;5.22;;;2.92;;
10991;SDS011;5549;47.028;15.514;2024-01-06T07:00:40;3.70;;;1.98;;
10991;SDS011;5549;47.028;15.514;2024-01-06T07:03:08;5.75;;;2.22;;
10991;SDS011;5549;47.028;15.514;2024-01-06T07:05:36;7.18;;;2.65;;
10991;SDS011;5549;47.028;15.514;2024-01-06T07:08:04;5.55;;;2.17;;
10991;SDS011;5549;47.028;15.514;2024-01-06T07:10:36;5.63;;;2.15;;
10991;SDS011;5549;47.028;15.514;2024-01-06T07:13:06;4.15;;;1.23;;
10991;SDS011;5549;47.028;15.514;2024-01-06T07:15:34;7.72;;;1.52;;
10991;SDS011;5549;47.028;15.514;2024-01-06T07:18:02;5.68;;;1.92;;
10991;SDS011;5549;47.028;15.514;2024-01-06T07:20:29;5.05;;;1.73;;
10991;SDS011;5549;47.028;15.514;2024-01-06T07:22:57;8.38;;;2.15;;
10991;SDS011;5549;47.028;15.514;2024-01-06T07:25:27;5.95;;;2.28;;
10991;SDS011;5549;47.028;15.514;2024-01-06T07:27:59;6.53;;;1.90;;
10991;SDS011;5549;47.028;15.514;2024-01-06T07:30:27;5.70;;;2.03;;
10991;SDS011;5549;47.028;15.514;2024-01-06T07:32:55;7.53;;;2.50;;
10991;SDS011;5549;47.028;15.514;2024-01-06T07:35:23;6.53;;;2.67;;
10991;SDS011;5549;47.028;15.514;2024-01-06T07:37:53;7.70;;;2.63;;
10991;SDS011;5549;47.028;15.514;2024-01-06T07:40:21;5.32;;;1.83;;
10991;SDS011;5549;47.028;15.514;2024-01-06T07:42:50;8.52;;;2.92;;
10991;SDS011;5549;47.028;15.514;2024-01-06T07:45:19;5.47;;;2.60;;
10991;SDS011;5549;47.028;15.514;2024-01-06T07:47:47;9.45;;;3.22;;
10991;SDS011;5549;47.028;15.514;2024-01-06T07:50:17;8.07;;;2.92;;
10991;SDS011;5549;47.028;15.514;2024-01-06T07:52:45;9.60;;;3.08;;
10991;SDS011;5549;47.028;15.514;2024-01-06T07:55:12;11.45;;;3.30;;
10991;SDS011;5549;47.028;15.514;2024-01-06T07:57:40;7.32;;;3.50;;
10991;SDS011;5549;47.028;15.514;2024-01-06T08:00:10;8.98;;;4.57;;
10991;SDS011;5549;47.028;15.514;2024-01-06T08:05:10;7.38;;;2.88;;
10991;SDS011;5549;47.028;15.514;2024-01-06T08:07:38;8.07;;;3.35;;
10991;SDS011;5549;47.028;15.514;2024-01-06T08:10:06;8.70;;;3.38;;
10991;SDS011;5549;47.028;15.514;2024-01-06T08:12:35;7.72;;;2.90;;
10991;SDS011;5549;47.028;15.514;2024-01-06T08:15:04;5.57;;;2.83;;
10991;SDS011;5549;47.028;15.514;2024-01-06T08:17:34;5.53;;;3.10;;
10991;SDS011;5549;47.028;15.514;2024-01-06T08:20:04;6.97;;;2.40;;
10991;SDS011;5549;47.028;15.514;2024-01-06T08:22:33;7.35;;;2.22;;
10991;SDS011;5549;47.028;15.514;2024-01-06T08:25:01;5.22;;;2.72;;
10991;SDS011;5549;47.028;15.514;2024-01-06T08:27:29;7.05;;;3.08;;
10991;SDS011;5549;47.028;15.514;2024-01-06T08:29:56;7.82;;;2.95;;
10991;SDS011;5549;47.028;15.514;2024-01-06T08:32:24;5.20;;;2.60;;
10991;SDS011;5549;47.028;15.514;2024-01-06T08:34:51;7.13;;;3.15;;
10991;SDS011;5549;47.028;15.514;2024-01-06T08:37:20;5.57;;;2.38;;
10991;SDS011;5549;47.028;15.514;2024-01-06T08:39:47;6.38;;;3.20;;
10991;SDS011;5549;47.028;15.514;2024-01-06T08:42:15;7.40;;;2.97;;
10991;SDS011;5549;47.028;15.514;2024-01-06T08:44:46;7.70;;;3.30;;
10991;SDS011;5549;47.028;15.514;2024-01-06T08:47:14;6.22;;;3.03;;
10991;SDS011;5549;47.028;15.514;2024-01-06T08:49:41;9.00;;;4.05;;
10991;SDS011;5549;47.028;15.514;2024-01-06T08:52:09;8.35;;;3.20;;
10991;SDS011;5549;47.028;15.514;2024-01-06T08:54:38;6.47;;;3.38;;
10991;SDS011;5549;47.028;15.514;2024-01-06T08:57:05;8.48;;;3.70;;
10991;SDS011;5549;47.028;15.514;2024-01-06T08:59:33;6.65;;;3.50;;
10991;SDS011;5549;47.028;15.514;2024-01-06T09:02:00;7.28;;;3.22;;
10991;SDS011;5549;47.028;15.514;2024-01-06T09:04:30;7.20;;;3.05;;
10991;SDS011;5549;47.028;15.514;2024-01-06T09:06:57;10.70;;;3.97;;
10991;SDS011;5549;47.028;15.514;2024-01-06T09:09:25;7.45;;;3.33;;
10991;SDS011;5549;47.028;15.514;2024-01-06T09:11:55;6.00;;;3.28;;
10991;SDS011;5549;47.028;15.514;2024-01-06T09:14:22;9.32;;;3.08;;
10991;SDS011;5549;47.028;15.514;2024-01-06T09:16:50;7.90;;;2.95;;
10991;SDS011;5549;47.028;15.514;2024-01-06T09:19:17;6.40;;;2.88;;
10991;SDS011;5549;47.028;15.514;2024-01-06T09:21:45;8.60;;;3.83;;
10991;SDS011;5549;47.028;15.514;2024-01-06T09:24:12;8.27;;;3.17;;
10991;SDS011;5549;47.028;15.514;2024-01-06T09:26:40;7.80;;;3.63;;
10991;SDS011;5549;47.028;15.514;2024-01-06T09:29:11;8.68;;;3.58;;
10991;SDS011;5549;47.028;15.514;2024-01-06T09:31:41;10.70;;;3.47;;
10991;SDS011;5549;47.028;15.514;2024-01-06T09:34:09;8.38;;;3.05;;
10991;SDS011;5549;47.028;15.514;2024-01-06T09:36:37;6.18;;;3.20;;
10991;SDS011;5549;47.028;15.514;2024-01-06T09:39:05;6.57;;;3.17;;
10991;SDS011;5549;47.028;15.514;2024-01-06T09:41:33;10.60;;;4.07;;
10991;SDS011;5549;47.028;15.514;2024-01-06T09:44:01;8.15;;;3.63;;
10991;SDS011;5549;47.028;15.514;2024-01-06T09:46:30;7.38;;;3.17;;
10991;SDS011;5549;47.028;15.514;2024-01-06T09:49:01;7.22;;;3.35;;
10991;SDS011;5549;47.028;15.514;2024-01-06T09:51:28;6.88;;;3.03;;
10991;SDS011;5549;47.028;15.514;2024-01-06T09:53:56;7.63;;;3.78;;
10991;SDS011;5549;47.028;15.514;2024-01-06T09:56:25;8.10;;;3.72;;
10991;SDS011;5549;47.028;15.514;2024-01-06T09:58:55;7.18;;;3.75;;
10991;SDS011;5549;47.028;15.514;2024-01-06T10:01:23;7.53;;;3.80;;
10991;SDS011;5549;47.028;15.514;2024-01-06T10:03:52;7.35;;;3.55;;
10991;SDS011;5549;47.028;15.514;2024-01-06T10:06:20;8.40;;;3.83;;
10991;SDS011;5549;47.028;15.514;2024-01-06T10:08:48;12.90;;;3.75;;
10991;SDS011;5549;47.028;15.514;2024-01-06T10:11:16;8.13;;;3.75;;
10991;SDS011;5549;47.028;15.514;2024-01-06T10:13:44;8.25;;;3.85;;
10991;SDS011;5549;47.028;15.514;2024-01-06T10:16:12;10.40;;;4.70;;
10991;SDS011;5549;47.028;15.514;2024-01-06T10:18:39;9.13;;;5.28;;
10991;SDS011;5549;47.028;15.514;2024-01-06T10:21:08;11.75;;;6.90;;
10991;SDS011;5549;47.028;15.514;2024-01-06T10:23:36;15.65;;;8.15;;
10991;SDS011;5549;47.028;15.514;2024-01-06T10:26:03;17.00;;;8.88;;
10991;SDS011;5549;47.028;15.514;2024-01-06T10:28:33;14.85;;;6.75;;
10991;SDS011;5549;47.028;15.514;2024-01-06T10:31:01;12.07;;;5.82;;
10991;SDS011;5549;47.028;15.514;2024-01-06T10:33:28;12.82;;;5.43;;
10991;SDS011;5549;47.028;15.514;2024-01-06T10:35:59;12.65;;;5.40;;
10991;SDS011;5549;47.028;15.514;2024-01-06T10:38:29;13.55;;;4.95;;
10991;SDS011;5549;47.028;15.514;2024-01-06T10:40:57;9.32;;;4.72;;
10991;SDS011;5549;47.028;15.514;2024-01-06T10:43:26;11.05;;;4.75;;
10991;SDS011;5549;47.028;15.514;2024-01-06T10:45:55;11.68;;;5.90;;
10991;SDS011;5549;47.028;15.514;2024-01-06T10:48:24;10.38;;;4.75;;
10991;SDS011;5549;47.028;15.514;2024-01-06T10:50:53;11.05;;;4.50;;
10991;SDS011;5549;47.028;15.514;2024-01-06T10:53:22;8.25;;;4.32;;
10991;SDS011;5549;47.028;15.514;2024-01-06T10:55:56;10.00;;;4.03;;
10991;SDS011;5549;47.028;15.514;2024-01-06T10:58:24;7.28;;;4.30;;
10991;SDS011;5549;47.028;15.514;2024-01-06T11:00:52;8.60;;;4.53;;
10991;SDS011;5549;47.028;15.514;2024-01-06T11:03:22;7.45;;;3.78;;
10991;SDS011;5549;47.028;15.514;2024-01-06T11:05:51;7.95;;;3.92;;
10991;SDS011;5549;47.028;15.514;2024-01-06T11:08:18;8.60;;;4.40;;
10991;SDS011;5549;47.028;15.514;2024-01-06T11:10:47;10.90;;;5.05;;
10991;SDS011;5549;47.028;15.514;2024-01-06T11:13:21;11.63;;;6.05;;
10991;SDS011;5549;47.028;15.514;2024-01-06T11:15:51;12.55;;;5.70;;
10991;SDS011;5549;47.028;15.514;2024-01-06T11:18:32;9.73;;;5.80;;
10991;SDS011;5549;47.028;15.514;2024-01-06T11:21:19;11.23;;;5.95;;
10991;SDS011;5549;47.028;15.514;2024-01-06T11:24:07;8.43;;;4.60;;
10991;SDS011;5549;47.028;15.514;2024-01-06T11:26:44;10.35;;;5.32;;
10991;SDS011;5549;47.028;15.514;2024-01-06T11:29:13;11.00;;;6.15;;
10991;SDS011;5549;47.028;15.514;2024-01-06T11:31:41;10.60;;;5.72;;
10991;SDS011;5549;47.028;15.514;2024-01-06T11:34:12;10.70;;;6.07;;
10991;SDS011;5549;47.028;15.514;2024-01-06T11:36:44;9.98;;;5.55;;
10991;SDS011;5549;47.028;15.514;2024-01-06T11:42:04;8.52;;;5.22;;
10991;SDS011;5549;47.028;15.514;2024-01-06T11:44:35;10.63;;;5.55;;
10991;SDS011;5549;47.028;15.514;2024-01-06T11:47:05;11.05;;;5.60;;
10991;SDS011;5549;47.028;15.514;2024-01-06T11:49:33;10.95;;;4.95;;
10991;SDS011;5549;47.028;15.514;2024-01-06T11:52:01;13.73;;;5.55;;
10991;SDS011;5549;47.028;15.514;2024-01-06T11:54:28;11.77;;;4.57;;
10991;SDS011;5549;47.028;15.514;2024-01-06T11:56:57;10.25;;;5.20;;
10991;SDS011;5549;47.028;15.514;2024-01-06T11:59:24;10.48;;;5.57;;
10991;SDS011;5549;47.028;15.514;2024-01-06T12:01:53;12.00;;;7.15;;
10991;SDS011;5549;47.028;15.514;2024-01-06T12:04:21;9.23;;;5.45;;
10991;SDS011;5549;47.028;15.514;2024-01-06T12:06:50;11.57;;;6.25;;
10991;SDS011;5549;47.028;15.514;2024-01-06T12:09:19;13.70;;;5.70;;
10991;SDS011;5549;47.028;15.514;2024-01-06T12:11:57;9.52;;;5.53;;
10991;SDS011;5549;47.028;15.514;2024-01-06T12:14:29;11.93;;;4.70;;
10991;SDS011;5549;47.028;15.514;2024-01-06T12:16:59;9.13;;;4.65;;
10991;SDS011;5549;47.028;15.514;2024-01-06T12:19:29;12.13;;;6.20;;
10991;SDS011;5549;47.028;15.514;2024-01-06T12:21:58;12.52;;;5.82;;
10991;SDS011;5549;47.028;15.514;2024-01-06T12:24:27;10.02;;;5.50;;
10991;SDS011;5549;47.028;15.514;2024-01-06T12:26:55;8.80;;;5.13;;
10991;SDS011;5549;47.028;15.514;2024-01-06T12:29:26;7.90;;;4.40;;
10991;SDS011;5549;47.028;15.514;2024-01-06T12:32:00;7.82;;;4.05;;
10991;SDS011;5549;47.028;15.514;2024-01-06T12:34:27;7.53;;;4.20;;
10991;SDS011;5549;47.028;15.514;2024-01-06T12:36:57;7.93;;;3.88;;
10991;SDS011;5549;47.028;15.514;2024-01-06T12:39:27;10.43;;;4.50;;
10991;SDS011;5549;47.028;15.514;2024-01-06T12:41:55;8.40;;;4.03;;
10991;SDS011;5549;47.028;15.514;2024-01-06T12:44:24;7.80;;;3.70;;
10991;SDS011;5549;47.028;15.514;2024-01-06T12:46:52;8.20;;;4.07;;
10991;SDS011;5549;47.028;15.514;2024-01-06T12:49:23;6.70;;;3.20;;
10991;SDS011;5549;47.028;15.514;2024-01-06T12:51:53;6.90;;;3.22;;
10991;SDS011;5549;47.028;15.514;2024-01-06T12:54:20;5.47;;;2.63;;
10991;SDS011;5549;47.028;15.514;2024-01-06T12:56:48;3.60;;;1.88;;
10991;SDS011;5549;47.028;15.514;2024-01-06T12:59:16;5.95;;;2.70;;
10991;SDS011;5549;47.028;15.514;2024-01-06T13:01:44;6.97;;;2.55;;
10991;SDS011;5549;47.028;15.514;2024-01-06T13:04:12;8.77;;;5.35;;
10991;SDS011;5549;47.028;15.514;2024-01-06T13:06:41;5.43;;;2.58;;
10991;SDS011;5549;47.028;15.514;2024-01-06T13:09:08;6.95;;;3.42;;
10991;SDS011;5549;47.028;15.514;2024-01-06T13:11:41;10.23;;;5.63;;
10991;SDS011;5549;47.028;15.514;2024-01-06T13:14:11;11.00;;;6.00;;
10991;SDS011;5549;47.028;15.514;2024-01-06T13:16:39;8.95;;;4.88;;
10991;SDS011;5549;47.028;15.514;2024-01-06T13:19:08;6.25;;;3.85;;
10991;SDS011;5549;47.028;15.514;2024-01-06T13:21:36;4.68;;;2.20;;
10991;SDS011;5549;47.028;15.514;2024-01-06T13:24:06;6.18;;;3.40;;
10991;SDS011;5549;47.028;15.514;2024-01-06T13:26:34;6.97;;;3.88;;
10991;SDS011;5549;47.028;15.514;2024-01-06T13:29:02;5.78;;;3.17;;
10991;SDS011;5549;47.028;15.514;2024-01-06T13:31:30;6.72;;;4.15;;
10991;SDS011;5549;47.028;15.514;2024-01-06T13:33:58;6.85;;;3.60;;
10991;SDS011;5549;47.028;15.514;2024-01-06T13:36:25;8.52;;;3.78;;
10991;SDS011;5549;47.028;15.514;2024-01-06T13:38:53;7.72;;;3.58;;
10991;SDS011;5549;47.028;15.514;2024-01-06T13:41:22;6.93;;;3.55;;
10991;SDS011;5549;47.028;15.514;2024-01-06T13:43:50;6.90;;;4.03;;
10991;SDS011;5549;47.028;15.514;2024-01-06T13:46:19;7.43;;;4.18;;
10991;SDS011;5549;47.028;15.514;2024-01-06T13:48:47;7.68;;;4.57;;
10991;SDS011;5549;47.028;15.514;2024-01-06T13:51:15;9.23;;;4.70;;
10991;SDS011;5549;47.028;15.514;2024-01-06T13:53:42;8.27;;;4.28;;
10991;SDS011;5549;47.028;15.514;2024-01-06T13:56:11;8.95;;;4.55;;
10991;SDS011;5549;47.028;15.514;2024-01-06T13:58:40;10.68;;;5.72;;
10991;SDS011;5549;47.028;15.514;2024-01-06T14:01:10;11.80;;;4.97;;
10991;SDS011;5549;47.028;15.514;2024-01-06T14:03:37;6.55;;;2.95;;
10991;SDS011;5549;47.028;15.514;2024-01-06T14:06:07;8.55;;;2.70;;
10991;SDS011;5549;47.028;15.514;2024-01-06T14:08:36;5.35;;;2.63;;
10991;SDS011;5549;47.028;15.514;2024-01-06T14:11:04;4.90;;;2.03;;
10991;SDS011;5549;47.028;15.514;2024-01-06T14:13:32;4.18;;;2.55;;
10991;SDS011;5549;47.028;15.514;2024-01-06T14:16:01;5.22;;;2.03;;
10991;SDS011;5549;47.028;15.514;2024-01-06T14:18:29;4.13;;;1.75;;
10991;SDS011;5549;47.028;15.514;2024-01-06T14:20:59;3.28;;;1.42;;
10991;SDS011;5549;47.028;15.514;2024-01-06T14:23:27;4.40;;;1.52;;
10991;SDS011;5549;47.028;15.514;2024-01-06T14:25:58;4.38;;;1.70;;
10991;SDS011;5549;47.028;15.514;2024-01-06T14:28:25;3.83;;;1.60;;
10991;SDS011;5549;47.028;15.514;2024-01-06T14:30:55;2.97;;;1.20;;
10991;SDS011;5549;47.028;15.514;2024-01-06T14:33:25;3.03;;;1.00;;
10991;SDS011;5549;47.028;15.514;2024-01-06T14:35:55;2.90;;;0.82;;
10991;SDS011;5549;47.028;15.514;2024-01-06T14:38:23;3.28;;;0.95;;
10991;SDS011;5549;47.028;15.514;2024-01-06T14:40:50;2.63;;;0.93;;
10991;SDS011;5549;47.028;15.514;2024-01-06T14:43:18;4.22;;;0.85;;
10991;SDS011;5549;47.028;15.514;2024-01-06T14:45:47;2.58;;;0.98;;
10991;SDS011;5549;47.028;15.514;2024-01-06T14:48:15;2.05;;;0.77;;
10991;SDS011;5549;47.028;15.514;2024-01-06T14:50:43;1.85;;;0.68;;
10991;SDS011;5549;47.028;15.514;2024-01-06T14:53:11;4.05;;;0.98;;
10991;SDS011;5549;47.028;15.514;2024-01-06T14:55:38;2.25;;;0.82;;
10991;SDS011;5549;47.028;15.514;2024-01-06T14:58:06;3.88;;;1.08;;
10991;SDS011;5549;47.028;15.514;2024-01-06T15:00:34;3.05;;;0.88;;
10991;SDS011;5549;47.028;15.514;2024-01-06T15:03:02;2.42;;;0.95;;